createdAt,value
2022-08-27T00:02:01.000Z,96.6
2022-08-27T00:04:46.000Z,96.6
2022-08-27T00:07:30.000Z,96.7
2022-08-27T00:10:15.000Z,96.7
2022-08-27T00:13:00.000Z,97.1
2022-08-27T00:14:18.000Z,96.3
2022-08-27T00:15:44.000Z,96.6
2022-08-27T00:18:29.000Z,96.9
2022-08-27T00:21:14.000Z,96.6
2022-08-27T00:23:58.000Z,96.1
2022-08-27T00:26:43.000Z,96.6
2022-08-27T00:29:28.000Z,96.8
2022-08-27T00:32:12.000Z,96.1
2022-08-27T00:34:57.000Z,96.6
2022-08-27T00:37:42.000Z,96.6
2022-08-27T00:40:26.000Z,96.1
2022-08-27T00:41:44.000Z,96.2
2022-08-27T00:43:11.000Z,96.3
2022-08-27T00:45:55.000Z,96.8
2022-08-27T00:48:40.000Z,96.8
2022-08-27T00:51:25.000Z,97.3
2022-08-27T00:54:09.000Z,96.9
2022-08-27T00:56:54.000Z,97
2022-08-27T00:59:39.000Z,97.4
2022-08-27T01:02:23.000Z,96.9
2022-08-27T01:05:08.000Z,97.1
2022-08-27T01:07:53.000Z,97
2022-08-27T01:09:10.000Z,96.9
2022-08-27T01:10:37.000Z,97.1
2022-08-27T01:13:22.000Z,97
2022-08-27T01:16:07.000Z,96.8
2022-08-27T01:18:51.000Z,97
2022-08-27T01:21:36.000Z,97.1
2022-08-27T01:24:20.000Z,97.1
2022-08-27T01:27:05.000Z,97.7
2022-08-27T01:29:50.000Z,97.7
2022-08-27T01:32:34.000Z,97.6
2022-08-27T01:35:19.000Z,96.5
2022-08-27T01:36:37.000Z,97.1
2022-08-27T01:38:04.000Z,96.7
2022-08-27T01:40:48.000Z,96.3
2022-08-27T01:43:33.000Z,95.5
2022-08-27T01:46:18.000Z,95.9
2022-08-27T01:49:02.000Z,95.7
2022-08-27T01:51:47.000Z,94.9
2022-08-27T01:54:31.000Z,94.8
2022-08-27T01:57:16.000Z,94.5
2022-08-27T02:00:01.000Z,94.7
2022-08-27T02:02:45.000Z,94.2
2022-08-27T02:04:03.000Z,93.6
2022-08-27T02:05:30.000Z,93.5
2022-08-27T02:08:15.000Z,93.8
2022-08-27T02:10:59.000Z,94.3
2022-08-27T02:13:44.000Z,94.9
2022-08-27T02:16:29.000Z,94.2
2022-08-27T02:19:13.000Z,92.9
2022-08-27T02:21:58.000Z,93.4
2022-08-27T02:24:43.000Z,94.2
2022-08-27T02:27:27.000Z,94
2022-08-27T02:30:12.000Z,93.8
2022-08-27T02:31:30.000Z,93.3
2022-08-27T02:32:56.000Z,93
2022-08-27T02:35:41.000Z,93.1
2022-08-27T02:38:26.000Z,92.9
2022-08-27T02:41:10.000Z,93.3
2022-08-27T02:43:55.000Z,93
2022-08-27T02:46:40.000Z,93.3
2022-08-27T02:49:24.000Z,93.3
2022-08-27T02:52:09.000Z,92.7
2022-08-27T02:54:54.000Z,94
2022-08-27T02:57:38.000Z,93.3
2022-08-27T02:58:56.000Z,92.1
2022-08-27T03:00:23.000Z,92
2022-08-27T03:03:07.000Z,92.7
2022-08-27T03:05:52.000Z,92.8
2022-08-27T03:08:37.000Z,92.5
2022-08-27T03:11:21.000Z,92.4
2022-08-27T03:14:06.000Z,92.7
2022-08-27T03:16:51.000Z,92.5
2022-08-27T03:19:35.000Z,91.9
2022-08-27T03:22:20.000Z,92.4
2022-08-27T03:25:05.000Z,93.5
2022-08-27T03:26:22.000Z,93.5
2022-08-27T03:27:49.000Z,93.5
2022-08-27T03:30:34.000Z,92.4
2022-08-27T03:33:19.000Z,92.7
2022-08-27T03:36:03.000Z,92.7
2022-08-27T03:38:48.000Z,92
2022-08-27T03:41:32.000Z,92.8
2022-08-27T03:44:17.000Z,91.6
2022-08-27T03:47:02.000Z,93.3
2022-08-27T03:49:46.000Z,93.3
2022-08-27T03:52:31.000Z,92.7
2022-08-27T03:53:49.000Z,92.8
2022-08-27T03:55:16.000Z,92.5
2022-08-27T03:58:00.000Z,92.4
2022-08-27T04:00:45.000Z,91.8
2022-08-27T04:03:30.000Z,91.8
2022-08-27T04:06:14.000Z,92.3
2022-08-27T04:08:59.000Z,92.7
2022-08-27T04:11:43.000Z,92.7
2022-08-27T04:14:28.000Z,93.5
2022-08-27T04:17:13.000Z,93.5
2022-08-27T04:19:57.000Z,92.5
2022-08-27T04:21:15.000Z,93
2022-08-27T04:22:42.000Z,92.2
2022-08-27T04:25:27.000Z,92.7
2022-08-27T04:28:11.000Z,92.7
2022-08-27T04:30:56.000Z,92.7
2022-08-27T04:33:41.000Z,92
2022-08-27T04:36:25.000Z,92.3
2022-08-27T04:39:10.000Z,93
2022-08-27T04:42:11.000Z,91.9
2022-08-27T04:44:56.000Z,92
2022-08-27T04:47:40.000Z,92.5
2022-08-27T04:48:58.000Z,92
2022-08-27T04:50:25.000Z,91.2
2022-08-27T04:53:09.000Z,91.4
2022-08-27T04:55:54.000Z,91.6
2022-08-27T04:58:39.000Z,91.7
2022-08-27T05:01:23.000Z,90.9
2022-08-27T05:04:08.000Z,90.7
2022-08-27T05:06:53.000Z,91.4
2022-08-27T05:09:37.000Z,92
2022-08-27T05:12:22.000Z,91.9
2022-08-27T05:15:07.000Z,91.1
2022-08-27T05:16:24.000Z,91.8
2022-08-27T05:17:51.000Z,91.4
2022-08-27T05:20:36.000Z,91.5
2022-08-27T05:23:20.000Z,91
2022-08-27T05:26:05.000Z,90.7
2022-08-27T05:28:50.000Z,91.4
2022-08-27T05:31:34.000Z,90.3
2022-08-27T05:34:19.000Z,90.4
2022-08-27T05:37:04.000Z,90
2022-08-27T05:39:48.000Z,90.3
2022-08-27T05:42:33.000Z,90
2022-08-27T05:43:51.000Z,90
2022-08-27T05:45:18.000Z,90.3
2022-08-27T05:48:02.000Z,90.2
2022-08-27T05:50:47.000Z,90
2022-08-27T05:53:32.000Z,89.9
2022-08-27T05:56:16.000Z,89.2
2022-08-27T05:59:01.000Z,90.1
2022-08-27T06:01:45.000Z,89.6
2022-08-27T06:04:30.000Z,90.1
2022-08-27T06:07:15.000Z,89.8
2022-08-27T06:09:59.000Z,90
2022-08-27T06:11:17.000Z,90.3
2022-08-27T06:12:44.000Z,90.2
2022-08-27T06:15:29.000Z,89.9
2022-08-27T06:18:13.000Z,89.8
2022-08-27T06:20:58.000Z,89.5
2022-08-27T06:23:43.000Z,89.5
2022-08-27T06:26:27.000Z,89.8
2022-08-27T06:29:12.000Z,88.9
2022-08-27T06:31:56.000Z,89.6
2022-08-27T06:34:41.000Z,89.8
2022-08-27T06:37:26.000Z,89.4
2022-08-27T06:38:44.000Z,88.8
2022-08-27T06:40:10.000Z,89.5
2022-08-27T06:42:55.000Z,89
2022-08-27T06:45:40.000Z,88.9
2022-08-27T06:48:24.000Z,87.9
2022-08-27T06:51:09.000Z,89.8
2022-08-27T06:53:54.000Z,87.6
2022-08-27T06:56:38.000Z,87.7
2022-08-27T06:59:23.000Z,87.1
2022-08-27T07:02:08.000Z,88.8
2022-08-27T07:04:52.000Z,87.1
2022-08-27T07:06:10.000Z,86
2022-08-27T07:07:37.000Z,85.2
2022-08-27T07:10:21.000Z,85.7
2022-08-27T07:13:06.000Z,85.6
2022-08-27T07:15:51.000Z,86.1
2022-08-27T07:18:35.000Z,85.4
2022-08-27T07:21:20.000Z,84.2
2022-08-27T07:24:05.000Z,84.6
2022-08-27T07:26:49.000Z,83.3
2022-08-27T07:29:34.000Z,83
2022-08-27T07:32:19.000Z,83.4
2022-08-27T07:33:36.000Z,83.5
2022-08-27T07:35:03.000Z,83.8
2022-08-27T07:37:48.000Z,83.4
2022-08-27T07:40:32.000Z,82.2
2022-08-27T07:43:17.000Z,81.6
2022-08-27T07:46:02.000Z,82.4
2022-08-27T07:48:46.000Z,80.8
2022-08-27T07:51:31.000Z,80
2022-08-27T07:54:16.000Z,80.6
2022-08-27T07:57:00.000Z,79.5
2022-08-27T07:59:45.000Z,80.7
2022-08-27T08:01:03.000Z,79.2
2022-08-27T08:02:30.000Z,78.8
2022-08-27T08:05:14.000Z,79.1
2022-08-27T08:07:59.000Z,77.1
2022-08-27T08:10:44.000Z,77.1
2022-08-27T08:13:28.000Z,78.9
2022-08-27T08:16:13.000Z,79.5
2022-08-27T08:18:57.000Z,80.7
2022-08-27T08:21:42.000Z,80.3
2022-08-27T08:24:27.000Z,80.5
2022-08-27T08:27:11.000Z,79.8
2022-08-27T08:28:29.000Z,81.1
2022-08-27T08:29:56.000Z,81.4
2022-08-27T08:32:41.000Z,80.3
2022-08-27T08:35:25.000Z,80.9
2022-08-27T08:38:10.000Z,81.1
2022-08-27T08:40:55.000Z,79.9
2022-08-27T08:43:39.000Z,80.5
2022-08-27T08:46:24.000Z,80.6
2022-08-27T08:49:09.000Z,80.3
2022-08-27T08:51:53.000Z,80.2
2022-08-27T08:54:38.000Z,80.6
2022-08-27T08:55:56.000Z,81.4
2022-08-27T08:57:22.000Z,81.2
2022-08-27T09:00:07.000Z,82.9
2022-08-27T09:02:52.000Z,80.9
2022-08-27T09:05:36.000Z,80.1
2022-08-27T09:08:21.000Z,81.8
2022-08-27T09:11:06.000Z,80.8
2022-08-27T09:13:50.000Z,79.9
2022-08-27T09:16:35.000Z,78.8
2022-08-27T09:19:20.000Z,77.8
2022-08-27T09:22:04.000Z,77.1
2022-08-27T09:24:49.000Z,78.3
2022-08-27T09:27:33.000Z,79
2022-08-27T09:30:18.000Z,78.2
2022-08-27T09:33:03.000Z,77.9
2022-08-27T09:35:47.000Z,77.7
2022-08-27T09:38:32.000Z,78.3
2022-08-27T09:41:17.000Z,78.5
2022-08-27T09:44:01.000Z,79.5
2022-08-27T09:46:46.000Z,79.2
2022-08-27T09:49:31.000Z,78.9
2022-08-27T09:50:48.000Z,77.6
2022-08-27T09:52:15.000Z,77.8
2022-08-27T09:55:00.000Z,79
2022-08-27T09:57:45.000Z,78.1
2022-08-27T10:00:29.000Z,77.8
2022-08-27T10:03:14.000Z,78
2022-08-27T10:05:58.000Z,78.2
2022-08-27T10:08:43.000Z,78.2
2022-08-27T10:11:28.000Z,77.2
2022-08-27T10:14:12.000Z,77.6
2022-08-27T10:16:57.000Z,77.2
2022-08-27T10:18:15.000Z,78.1
2022-08-27T10:19:42.000Z,76.8
2022-08-27T10:22:26.000Z,76
2022-08-27T10:25:11.000Z,76.7
2022-08-27T10:27:56.000Z,76.4
2022-08-27T10:30:40.000Z,75
2022-08-27T10:33:25.000Z,77
2022-08-27T10:36:09.000Z,76.5
2022-08-27T10:38:54.000Z,76.6
2022-08-27T10:41:39.000Z,77
2022-08-27T10:44:23.000Z,75.9
2022-08-27T10:45:41.000Z,76.3
2022-08-27T10:47:08.000Z,76.1
2022-08-27T10:49:53.000Z,75.6
2022-08-27T10:52:37.000Z,77
2022-08-27T10:55:22.000Z,77.7
2022-08-27T10:58:07.000Z,75.6
2022-08-27T11:00:51.000Z,75.8
2022-08-27T11:03:36.000Z,74.4
2022-08-27T11:06:21.000Z,74
2022-08-27T11:09:05.000Z,73.1
2022-08-27T11:11:50.000Z,72.5
2022-08-27T11:13:08.000Z,73.1
2022-08-27T11:14:34.000Z,72.4
2022-08-27T11:17:19.000Z,73.6
2022-08-27T11:20:04.000Z,74.1
2022-08-27T11:22:48.000Z,74.3
2022-08-27T11:25:33.000Z,75.5
2022-08-27T11:28:18.000Z,73.9
2022-08-27T11:31:02.000Z,73.7
2022-08-27T11:33:47.000Z,73
2022-08-27T11:36:32.000Z,74.3
2022-08-27T11:39:16.000Z,75.1
2022-08-27T11:40:34.000Z,74.9
2022-08-27T11:42:01.000Z,75.4
2022-08-27T11:44:45.000Z,74.4
2022-08-27T11:47:30.000Z,73.6
2022-08-27T11:50:15.000Z,75
2022-08-27T11:52:59.000Z,76.5
2022-08-27T11:55:44.000Z,75.7
2022-08-27T11:58:29.000Z,74.6
2022-08-27T12:01:13.000Z,74.3
2022-08-27T12:03:58.000Z,69.6
2022-08-27T12:06:43.000Z,66.7
2022-08-27T12:08:01.000Z,68.7
2022-08-27T12:09:27.000Z,68.6
2022-08-27T12:12:12.000Z,69.3
2022-08-27T12:14:57.000Z,70.5
2022-08-27T12:17:41.000Z,68
2022-08-27T12:20:26.000Z,70.5
2022-08-27T12:25:55.000Z,70.4
2022-08-27T12:28:40.000Z,70.4
2022-08-27T12:31:24.000Z,72
2022-08-27T12:34:09.000Z,68.5
2022-08-27T12:35:27.000Z,68.5
2022-08-27T12:36:54.000Z,69
2022-08-27T12:39:38.000Z,69
2022-08-27T12:42:23.000Z,70.3
2022-08-27T12:45:08.000Z,71
2022-08-27T12:47:52.000Z,72.6
2022-08-27T12:50:37.000Z,68.3
2022-08-27T12:53:22.000Z,68.8
2022-08-27T12:56:06.000Z,69.1
2022-08-27T12:58:51.000Z,72.1
2022-08-27T13:01:36.000Z,71.6
2022-08-27T13:02:53.000Z,69.5
2022-08-27T13:04:36.000Z,69
2022-08-27T13:07:21.000Z,69.5
2022-08-27T13:10:06.000Z,70.5
2022-08-27T13:12:50.000Z,71.2
2022-08-27T13:15:35.000Z,70.3
2022-08-27T13:18:20.000Z,68.9
2022-08-27T13:21:04.000Z,67.9
2022-08-27T13:23:49.000Z,67.3
2022-08-27T13:26:34.000Z,64.6
2022-08-27T13:29:18.000Z,67.3
2022-08-27T13:30:36.000Z,65.4
2022-08-27T13:32:03.000Z,66
2022-08-27T13:34:47.000Z,65.8
2022-08-27T13:37:32.000Z,67.7
2022-08-27T13:40:17.000Z,68.3
2022-08-27T13:43:01.000Z,69.2
2022-08-27T13:45:46.000Z,70.8
2022-08-27T13:48:31.000Z,68.8
2022-08-27T13:51:15.000Z,69.3
2022-08-27T13:54:00.000Z,69.2
2022-08-27T13:56:45.000Z,69.1
2022-08-27T13:58:02.000Z,68.1
2022-08-27T13:59:29.000Z,66.4
2022-08-27T14:02:14.000Z,68.3
2022-08-27T14:04:59.000Z,69.9
2022-08-27T14:07:43.000Z,65.5
2022-08-27T14:10:28.000Z,66.2
2022-08-27T14:13:12.000Z,68.2
2022-08-27T14:15:57.000Z,66.8
2022-08-27T14:18:42.000Z,66.6
2022-08-27T14:21:26.000Z,67.7
2022-08-27T14:25:29.000Z,68
2022-08-27T14:26:56.000Z,69.1
2022-08-27T14:29:40.000Z,69.3
2022-08-27T14:32:25.000Z,69.4
2022-08-27T14:35:10.000Z,68.1
2022-08-27T14:37:54.000Z,67.8
2022-08-27T14:40:39.000Z,66.9
2022-08-27T14:43:23.000Z,68.6
2022-08-27T14:46:08.000Z,67.8
2022-08-27T14:48:53.000Z,67.8
2022-08-27T14:51:37.000Z,66.5
2022-08-27T14:52:55.000Z,67.2
2022-08-27T14:54:22.000Z,67.8
2022-08-27T14:57:07.000Z,67.6
2022-08-27T14:59:51.000Z,67.3
2022-08-27T15:02:36.000Z,68.7
2022-08-27T15:05:21.000Z,70
2022-08-27T15:08:05.000Z,71.2
2022-08-27T15:10:50.000Z,70.2
2022-08-27T15:13:35.000Z,70.1
2022-08-27T15:16:19.000Z,70.1
2022-08-27T15:19:04.000Z,71.8
2022-08-27T15:20:22.000Z,71.5
2022-08-27T15:21:48.000Z,69
2022-08-27T15:24:33.000Z,69.4
2022-08-27T15:27:18.000Z,70.5
2022-08-27T15:30:02.000Z,71.5
2022-08-27T15:32:47.000Z,71
2022-08-27T15:35:32.000Z,69.3
2022-08-27T15:38:16.000Z,68
2022-08-27T15:41:01.000Z,68
2022-08-27T15:43:46.000Z,70
2022-08-27T15:46:30.000Z,70.5
2022-08-27T15:47:48.000Z,70
2022-08-27T15:49:15.000Z,69.3
2022-08-27T15:51:59.000Z,69.2
2022-08-27T15:54:44.000Z,69.3
2022-08-27T15:57:29.000Z,67.4
2022-08-27T16:00:13.000Z,68.9
2022-08-27T16:02:58.000Z,69.2
2022-08-27T16:05:43.000Z,68.7
2022-08-27T16:08:27.000Z,70.4
2022-08-27T16:11:12.000Z,70.8
2022-08-27T16:13:57.000Z,70
2022-08-27T16:15:14.000Z,70.5
2022-08-27T16:16:41.000Z,70.5
2022-08-27T16:19:26.000Z,70.4
2022-08-27T16:22:11.000Z,71.4
2022-08-27T16:24:55.000Z,71.7
2022-08-27T16:27:40.000Z,71.7
2022-08-27T16:30:24.000Z,73
2022-08-27T16:33:09.000Z,72.9
2022-08-27T16:35:54.000Z,71.9
2022-08-27T16:38:38.000Z,70.4
2022-08-27T16:41:23.000Z,70.8
2022-08-27T16:42:41.000Z,70.6
2022-08-27T16:44:08.000Z,69.9
2022-08-27T16:46:52.000Z,69.9
2022-08-27T16:49:37.000Z,72.3
2022-08-27T16:52:22.000Z,71.4
2022-08-27T16:55:06.000Z,72.1
2022-08-27T16:57:51.000Z,72.9
2022-08-27T17:00:35.000Z,70
2022-08-27T17:03:20.000Z,70.6
2022-08-27T17:06:05.000Z,70.6
2022-08-27T17:08:49.000Z,72
2022-08-27T17:10:07.000Z,71.5
2022-08-27T17:11:34.000Z,71
2022-08-27T17:14:19.000Z,71.9
2022-08-27T17:17:03.000Z,72.1
2022-08-27T17:19:48.000Z,72
2022-08-27T17:22:33.000Z,72.7
2022-08-27T17:25:17.000Z,71.5
2022-08-27T17:28:02.000Z,72.1
2022-08-27T17:30:47.000Z,72.4
2022-08-27T17:33:31.000Z,73.2
2022-08-27T17:36:16.000Z,73.5
2022-08-27T17:37:34.000Z,72.9
2022-08-27T17:39:00.000Z,73.3
2022-08-27T17:41:45.000Z,73.1
2022-08-27T17:44:30.000Z,72.4
2022-08-27T17:47:14.000Z,71.9
2022-08-27T17:49:59.000Z,72.8
2022-08-27T17:52:44.000Z,73.5
2022-08-27T17:55:28.000Z,73.3
2022-08-27T17:58:13.000Z,72.5
2022-08-27T18:00:58.000Z,72.2
2022-08-27T18:03:42.000Z,72.7
2022-08-27T18:05:00.000Z,72.7
2022-08-27T18:06:27.000Z,72.9
2022-08-27T18:09:12.000Z,73
2022-08-27T18:11:56.000Z,73.2
2022-08-27T18:14:41.000Z,73.7
2022-08-27T18:17:25.000Z,73.6
2022-08-27T18:20:10.000Z,73.3
2022-08-27T18:22:55.000Z,73.9
2022-08-27T18:25:39.000Z,73.6
2022-08-27T18:28:24.000Z,73.8
2022-08-27T18:31:09.000Z,73.6
2022-08-27T18:32:27.000Z,74
2022-08-27T18:33:53.000Z,73.9
2022-08-27T18:36:38.000Z,74.2
2022-08-27T18:39:23.000Z,74
2022-08-27T18:42:07.000Z,74.2
2022-08-27T18:44:52.000Z,74
2022-08-27T18:47:36.000Z,74.1
2022-08-27T18:50:21.000Z,74.5
2022-08-27T18:53:06.000Z,75.1
2022-08-27T18:55:50.000Z,75.3
2022-08-27T18:58:35.000Z,75.6
2022-08-27T18:59:53.000Z,76
2022-08-27T19:01:20.000Z,76.4
2022-08-27T19:04:04.000Z,76.3
2022-08-27T19:06:49.000Z,75.7
2022-08-27T19:09:34.000Z,75.8
2022-08-27T19:12:18.000Z,75.5
2022-08-27T19:15:03.000Z,75.4
2022-08-27T19:17:48.000Z,75.3
2022-08-27T19:20:32.000Z,75.5
2022-08-27T19:23:17.000Z,75.3
2022-08-27T19:26:01.000Z,75
2022-08-27T19:27:19.000Z,73.2
2022-08-27T19:28:46.000Z,73.4
2022-08-27T19:31:31.000Z,74
2022-08-27T19:34:15.000Z,73.3
2022-08-27T19:37:00.000Z,72.6
2022-08-27T19:39:45.000Z,72.7
2022-08-27T19:42:29.000Z,71
2022-08-27T19:45:14.000Z,70
2022-08-27T19:47:59.000Z,72.1
2022-08-27T19:50:43.000Z,70.6
2022-08-27T19:53:28.000Z,69.9
2022-08-27T19:54:46.000Z,70.7
2022-08-27T19:56:12.000Z,70.9
2022-08-27T19:58:57.000Z,70.3
2022-08-27T20:01:42.000Z,70.5
2022-08-27T20:04:26.000Z,71.5
2022-08-27T20:07:11.000Z,71.1
2022-08-27T20:09:56.000Z,71
2022-08-27T20:12:40.000Z,70.7
2022-08-27T20:15:25.000Z,70.8
2022-08-27T20:18:10.000Z,70.7
2022-08-27T20:20:54.000Z,71
2022-08-27T20:22:12.000Z,71.1
2022-08-27T20:23:39.000Z,71.3
2022-08-27T20:26:24.000Z,71.1
2022-08-27T20:29:08.000Z,71.7
2022-08-27T20:31:53.000Z,72.6
2022-08-27T20:34:37.000Z,71.9
2022-08-27T20:37:22.000Z,71.6
2022-08-27T20:40:07.000Z,71.7
2022-08-27T20:42:51.000Z,71.1
2022-08-27T20:45:36.000Z,71.2
2022-08-27T20:48:21.000Z,72.6
2022-08-27T20:49:39.000Z,72.3
2022-08-27T20:51:05.000Z,72.1
2022-08-27T20:53:50.000Z,72.4
2022-08-27T20:56:35.000Z,72
2022-08-27T20:59:19.000Z,72.1
2022-08-27T21:02:04.000Z,72.2
2022-08-27T21:04:48.000Z,72.7
2022-08-27T21:07:33.000Z,72.3
2022-08-27T21:10:18.000Z,73
2022-08-27T21:13:02.000Z,73.2
2022-08-27T21:15:47.000Z,72.1
2022-08-27T21:17:05.000Z,71.8
2022-08-27T21:18:32.000Z,71.6
2022-08-27T21:21:17.000Z,71.7
2022-08-27T21:24:17.000Z,71.6
2022-08-27T21:27:02.000Z,71.5
2022-08-27T21:29:47.000Z,71.6
2022-08-27T21:32:31.000Z,71.7
2022-08-27T21:35:16.000Z,71.3
2022-08-27T21:38:01.000Z,71.9
2022-08-27T21:40:45.000Z,72.8
2022-08-27T21:43:30.000Z,72.8
2022-08-27T21:44:48.000Z,73.6
2022-08-27T21:46:14.000Z,73.3
2022-08-27T21:48:59.000Z,73.6
2022-08-27T21:51:44.000Z,72
2022-08-27T21:54:28.000Z,72.9
2022-08-27T21:57:13.000Z,73.9
2022-08-27T21:59:58.000Z,73.7
2022-08-27T22:02:42.000Z,73.4
2022-08-27T22:05:27.000Z,74.3
2022-08-27T22:08:12.000Z,74.5
2022-08-27T22:10:56.000Z,74
2022-08-27T22:12:14.000Z,74.3
2022-08-27T22:13:41.000Z,73.8
2022-08-27T22:16:26.000Z,74
2022-08-27T22:19:10.000Z,74.8
2022-08-27T22:21:55.000Z,75.5
2022-08-27T22:24:39.000Z,74.9
2022-08-27T22:27:24.000Z,75.3
2022-08-27T22:30:09.000Z,75.3
2022-08-27T22:32:53.000Z,75.2
2022-08-27T22:35:38.000Z,74.5
2022-08-27T22:38:23.000Z,74.8
2022-08-27T22:39:40.000Z,75.6
2022-08-27T22:41:07.000Z,75.6
2022-08-27T22:43:52.000Z,75.9
2022-08-27T22:46:37.000Z,77.3
2022-08-27T22:49:21.000Z,77.2
2022-08-27T22:52:06.000Z,75.6
2022-08-27T22:54:50.000Z,75.6
2022-08-27T22:57:35.000Z,76.1
2022-08-27T23:00:20.000Z,75.5
2022-08-27T23:03:04.000Z,76.8
2022-08-27T23:05:49.000Z,75.5
2022-08-27T23:07:07.000Z,75.3
2022-08-27T23:08:34.000Z,75.7
2022-08-27T23:11:18.000Z,75.9
2022-08-27T23:14:03.000Z,76.5
2022-08-27T23:16:48.000Z,77
2022-08-27T23:19:32.000Z,77.6
2022-08-27T23:22:17.000Z,78.3
2022-08-27T23:25:02.000Z,78.8
2022-08-27T23:27:46.000Z,79.6
2022-08-27T23:30:31.000Z,79.9
2022-08-27T23:33:15.000Z,81
2022-08-27T23:34:33.000Z,82
2022-08-27T23:36:00.000Z,81.8
2022-08-27T23:38:45.000Z,82
2022-08-27T23:41:29.000Z,82
2022-08-27T23:44:14.000Z,82
2022-08-27T23:46:59.000Z,82.1
2022-08-27T23:49:43.000Z,82.7
2022-08-27T23:52:28.000Z,84.9
2022-08-27T23:55:13.000Z,84.5
2022-08-27T23:57:57.000Z,84.8
